NCAR-RAP Real-Time Weather Data

Output produced by METARs form (20 October 2018  09:13 UTC)
found at http://weather.rap.ucar.edu/surface/
 
KDCA 200852Z 20007KT 10SM -RA FEW010 BKN110 OVC140 14/12 A2982 RMK AO2 SLP097 P0002 60004 T01390117 58023
KDCA 200752Z 21010KT 9SM -RA OVC075 14/11 A2985 RMK AO2 SLP108 P0002 T01390111
KDCA 200652Z 21013KT 10SM -RA OVC070 14/10 A2987 RMK AO2 RAB33 SLP114 P0000 T01440100
KDCA 200552Z 19012KT 10SM OVC075 14/10 A2989 RMK AO2 RAE30 SLP121 P0001 60003 T01440100 10156 20144 58027
KDCA 200452Z 20009KT 10SM -RA OVC100 14/10 A2992 RMK AO2 SLP132 P0002 T01440100 401890061
KDCA 200352Z 21012KT 10SM -RA BKN120 OVC200 15/09 A2995 RMK AO2 RAB18 SLP139 P0000 T01500089
KDCA 200252Z 19012KT 10SM BKN130 OVC210 16/07 A2997 RMK AO2 SLP149 T01560072 58028
KDCA 200152Z 19013KT 10SM BKN130 BKN210 16/07 A3001 RMK AO2 SLP162 T01560072
KDCA 200052Z 19012KT 10SM FEW130 BKN140 BKN210 16/07 A3004 RMK AO2 SLP171 T01560072
KDCA 192352Z 19010KT 10SM FEW120 SCT150 BKN210 16/08 A3006 RMK AO2 SLP178 T01560078 10189 20156 56019
KDCA 192252Z 18008KT 10SM FEW110 SCT150 BKN240 16/09 A3007 RMK AO2 SLP183 T01610089
KDCA 192152Z 18010KT 10SM FEW100 SCT150 BKN250 17/07 A3008 RMK AO2 SLP186 T01720072
KDCA 192052Z 19011KT 10SM FEW095 SCT150 BKN250 18/06 A3011 RMK AO2 SLP197 T01830056 56039
KDCA 191952Z 19013KT 10SM FEW090 SCT150 BKN240 18/06 A3014 RMK AO2 SLP207 T01830061
KDCA 191852Z 20013G21KT 10SM FEW085 SCT250 18/06 A3017 RMK AO2 SLP216 T01830056
KDCA 191752Z 19011KT 10SM FEW085 SCT250 18/06 A3023 RMK AO2 SLP236 T01780056 10178 20072 58041
KDCA 191652Z 18012KT 10SM FEW085 SCT250 17/06 A3026 RMK AO2 PRESFR SLP248 T01670061
KDCA 191552Z 18009KT 10SM SCT250 16/06 A3032 RMK AO2 SLP266 T01560061
KDCA 191452Z 16010KT 10SM FEW250 13/07 A3035 RMK AO2 SLP277 T01330067 58009
KDCA 191352Z 17007KT 10SM CLR 11/07 A3037 RMK AO2 SLP283 T01110067
KDCA 191252Z 00000KT 10SM CLR 09/06 A3038 RMK AO2 SLP288 T00940061
KDCA 191152Z 00000KT 10SM CLR 07/04 A3038 RMK AO2 SLP287 T00720044 10083 20061 58002
KDCA 191052Z 24003KT 10SM CLR 07/04 A3038 RMK AO2 SLP288 T00720039 $
KDCA 190952Z 24003KT 10SM CLR 07/03 A3039 RMK AO2 SLP289 T00670028 $
KDCA 190852Z 22004KT 10SM CLR 07/03 A3039 RMK AO2 SLP289 T00670033 56003 $
KDCA 190752Z 00000KT 10SM CLR 08/04 A3038 RMK AO2 SLP289 T00780039
KDCA 190652Z 00000KT 10SM CLR 08/03 A3039 RMK AO2 SLP290 T00780033
KDCA 190552Z 25004KT 10SM CLR 07/03 A3039 RMK AO2 SLP292 T00720028 10128 20072 58004
KDCA 190452Z 00000KT 10SM CLR 08/03 A3040 RMK AO2 SLP292 T00830033 401500083
KDCA 190352Z 22003KT 10SM CLR 09/03 A3041 RMK AO2 SLP296 T00890033
KDCA 190252Z 21004KT 10SM CLR 09/05 A3041 RMK AO2 SLP296 T00940050 55001
KDCA 190152Z 26005KT 10SM CLR 10/03 A3040 RMK AO2 SLP295 T01000028
KDCA 190052Z 25004KT 10SM CLR 11/03 A3040 RMK AO2 SLP295 T01110028
KDCA 182352Z 26004KT 10SM CLR 13/00 A3041 RMK AO2 SLP297 T01280000 10150 20122 51007
KDCA 182252Z 36003KT 10SM CLR 13/M01 A3041 RMK AO2 SLP296 T01281006
KDCA 182152Z 35010KT 10SM FEW080 13/M01 A3039 RMK AO2 SLP292 T01331006
KDCA 182052Z 33007G14KT 10SM FEW075 14/M01 A3039 RMK AO2 SLP290 T01441006 56012
KDCA 181952Z 32007KT 10SM FEW070 15/00 A3040 RMK AO2 WSHFT 1908 SLP293 T01500000
KDCA 181923Z 34013KT 10SM FEW065 14/M01 A3040 RMK AO2 WSHFT 1908 T01441006
KDCA 181852Z 34011KT 10SM FEW065 14/M01 A3040 RMK AO2 SLP295 T01441006
KDCA 181752Z 33013G19KT 10SM FEW060 14/M01 A3042 RMK AO2 SLP302 T01441006 10144 20094 58010
KDCA 181652Z 29007G17KT 10SM FEW060 13/M01 A3044 RMK AO2 SLP308 T01281011
KDCA 181552Z 32012KT 10SM FEW060 13/M01 A3046 RMK AO2 SLP313 T01331006
KDCA 181452Z 34012G17KT 10SM FEW050 12/M02 A3045 RMK AO2 SLP313 T01171017 50012
KDCA 181352Z 30011G22KT 10SM FEW050 11/M02 A3046 RMK AO2 SLP313 T01111022
KDCA 181252Z 33008KT 10SM CLR 11/M02 A3045 RMK AO2 SLP310 T01061017
KDCA 181152Z 29005KT 10SM FEW060 FEW080 SCT250 09/M02 A3042 RMK AO2 SLP301 T00941022 10122 20089 53024
KDCA 181052Z 34008KT 10SM FEW060 SCT250 09/M02 A3039 RMK AO2 SLP289 T00941022
KDCA 180952Z 36013KT 10SM BKN065 10/M02 A3037 RMK AO2 SLP283 T01001022 $
KDCA 180852Z 33011G16KT 10SM BKN065 11/M01 A3035 RMK AO2 SLP276 T01061006 51023 $
KDCA 180752Z 33010KT 10SM SCT070 11/01 A3033 RMK AO2 SLP268 T01060006 $
KDCA 180652Z 33012KT 10SM SCT070 SCT250 12/01 A3031 RMK AO2 SLP262 T01170006 $
KDCA 180552Z 34014G23KT 10SM BKN070 12/02 A3028 RMK AO2 SLP252 T01220022 10172 20122 51027 $
KDCA 180452Z 35010KT 10SM SCT080 13/03 A3026 RMK AO2 SLP246 T01280028 402110117 $
KDCA 180352Z 32006KT 10SM BKN080 14/02 A3023 RMK AO2 SLP235 T01390022 $
KDCA 180252Z VRB04KT 10SM BKN080 15/02 A3020 RMK AO2 SLP225 T01500022 $
KDCA 180152Z 26006KT 10SM SCT080 15/02 A3017 RMK AO2 SLP216 T01500022 $
KDCA 180052Z 27006KT 10SM FEW140 16/02 A3014 RMK AO2 SLP207 T01610017 $
KDCA 172352Z 28010KT 10SM CLR 17/01 A3012 RMK AO2 SLP200 T01670011 10211 20167 53031 $
KDCA 172252Z 31009KT 10SM FEW050 18/01 A3009 RMK AO2 SLP190 T01780011 $
KDCA 172152Z 30011G23KT 10SM FEW050 19/02 A3005 RMK AO2 PK WND 31026/2100 SLP176 T01890017 $